Time;durP1;ratioP1;P1;durP2;ratioP2;P2;SDS_P1;SDS_P2;PMS_P1;PMS_P2;Temp;Humidity;BMP_temperature;BMP_pressure;BME280_temperature;BME280_humidity;BME280_pressure;Samples;Min_cycle;Max_cycle;Signal;HPM_P1;HPM_P2
2021/08/02 00:00:03;;;;;;;;;;;;;;;16.25;83.87;97513.99;1740129;82;22147;-88
2021/08/02 00:02:32;;;;;;;;;;;;;;;16.29;83.90;97508.70;1741547;81;26053;-89
2021/08/02 00:05:00;;;;;;;;;;;;;;;16.35;83.90;97505.07;1738280;81;24297;-88
2021/08/02 00:07:28;;;;;;;;;;;;;;;16.37;83.93;97504.39;1741015;82;20250;-89
2021/08/02 00:09:57;;;;;;;;;;;;;;;16.40;83.93;97502.75;1739578;82;24817;-88
2021/08/02 00:12:28;;;;;;;;;;;;;;;16.44;83.93;97500.11;1746110;81;21974;-89
2021/08/02 00:14:58;;;;;;;;;;;;;;;16.45;83.94;97503.08;1766826;81;25971;-88
2021/08/02 00:17:33;;;;;;;;;;;;;;;16.45;83.93;97512.33;1760988;81;25357;-88
2021/08/02 00:19:59;;;;;;;;;;;;;;;16.47;83.94;97502.43;1755817;81;20516;-89
2021/08/02 00:22:25;;;;;;;;;;;;;;;16.50;83.90;97509.52;1741348;82;24874;-88
2021/08/02 00:24:53;;;;;;;;;;;;;;;16.54;83.91;97503.39;1758127;81;22091;-89
2021/08/02 00:27:21;;;;;;;;;;;;;;;16.55;83.91;97504.55;1740056;82;26073;-88
2021/08/02 00:29:50;;;;;;;;;;;;;;;16.60;83.88;97504.08;1714451;82;20577;-88
2021/08/02 00:32:24;;;;;;;;;;;;;;;16.64;83.86;97511.99;1760422;81;20171;-88
2021/08/02 00:34:50;;;;;;;;;;;;;;;16.66;83.81;97507.38;1739271;81;24822;-88
2021/08/02 00:37:21;;;;;;;;;;;;;;;16.70;83.79;97500.75;1732424;82;22044;-88
2021/08/02 00:39:52;;;;;;;;;;;;;;;16.73;83.78;97502.59;1731129;82;26864;-88
2021/08/02 00:42:37;;;;;;;;;;;;;;;16.76;83.70;97497.94;1733975;82;24719;-88
2021/08/02 00:45:08;;;;;;;;;;;;;;;16.78;83.68;97496.79;1704766;82;20252;-89
2021/08/02 00:47:36;;;;;;;;;;;;;;;16.78;83.64;97502.57;1742664;82;25450;-89
2021/08/02 00:50:07;;;;;;;;;;;;;;;16.75;83.59;97506.36;1727357;82;22010;-88
2021/08/02 00:52:37;;;;;;;;;;;;;;;16.70;83.54;97506.04;1713234;83;25961;-88
2021/08/02 00:55:05;;;;;;;;;;;;;;;16.64;83.51;97508.86;1770027;80;24546;-89
2021/08/02 00:57:37;;;;;;;;;;;;;;;16.60;83.46;97510.68;1735827;82;20234;-89
2021/08/02 01:00:08;;;;;;;;;;;;;;;16.56;83.43;97509.34;1708114;84;24677;-89
2021/08/02 01:02:36;;;;;;;;;;;;;;;16.55;83.38;97509.84;1710648;82;21991;-89
2021/08/02 01:05:02;;;;;;;;;;;;;;;16.54;83.37;97516.10;1722154;82;26754;-88
2021/08/02 01:07:29;;;;;;;;;;;;;;;16.51;83.36;97516.45;1720589;82;24509;-88
2021/08/02 01:09:56;;;;;;;;;;;;;;;16.51;83.37;97516.95;1712510;82;20287;-88
2021/08/02 01:12:22;;;;;;;;;;;;;;;16.52;83.38;97514.64;1706989;82;24845;-88
2021/08/02 01:14:50;;;;;;;;;;;;;;;16.49;83.38;97520.23;1694278;83;20250;-88
2021/08/02 01:17:16;;;;;;;;;;;;;;;16.47;83.36;97517.78;1674949;83;25925;-89
2021/08/02 01:19:43;;;;;;;;;;;;;;;16.46;83.38;97524.05;1736539;82;24361;-88
2021/08/02 01:22:14;;;;;;;;;;;;;;;16.47;83.37;97522.23;1736651;81;20274;-88
2021/08/02 01:24:40;;;;;;;;;;;;;;;16.46;83.38;97517.45;1734569;82;24755;-88
2021/08/02 01:27:09;;;;;;;;;;;;;;;16.49;83.38;97518.42;1736376;82;22028;-88
2021/08/02 01:29:53;;;;;;;;;;;;;;;16.51;83.38;97523.05;1696869;83;25945;-88
2021/08/02 01:32:27;;;;;;;;;;;;;;;16.51;83.40;97520.41;1696278;83;24412;-88
2021/08/02 01:35:00;;;;;;;;;;;;;;;16.55;83.42;97525.69;1702871;84;20284;-89
2021/08/02 01:37:26;;;;;;;;;;;;;;;16.61;83.42;97521.58;1736409;82;24875;-88
2021/08/02 01:39:53;;;;;;;;;;;;;;;16.63;83.41;97516.97;1705408;84;20915;-88
2021/08/02 01:42:37;;;;;;;;;;;;;;;16.64;83.39;97515.95;1747282;81;26105;-88
2021/08/02 01:45:10;;;;;;;;;;;;;;;16.64;83.40;97520.74;1749155;81;24607;-88
2021/08/02 01:47:43;;;;;;;;;;;;;;;16.64;83.41;97527.34;1746522;81;20320;-88
2021/08/02 01:50:30;;;;;;;;;;;;;;;16.63;83.40;97523.58;1743574;81;24911;-88
2021/08/02 01:53:03;;;;;;;;;;;;;;;16.62;83.39;97531.16;1721916;82;21975;-88
2021/08/02 01:55:36;;;;;;;;;;;;;;;16.58;83.41;97533.27;1713898;82;26071;-88
2021/08/02 01:58:07;;;;;;;;;;;;;;;16.60;83.39;97539.73;1712547;82;24494;-87
2021/08/02 02:00:42;;;;;;;;;;;;;;;16.62;83.40;97533.80;1718224;82;20494;-88
2021/08/02 02:03:09;;;;;;;;;;;;;;;16.65;83.36;97537.42;1718094;82;25589;-88
2021/08/02 02:05:37;;;;;;;;;;;;;;;16.66;83.34;97541.23;1721963;82;22804;-88
2021/08/02 02:08:05;;;;;;;;;;;;;;;16.68;83.35;97538.42;1725891;82;25958;-88
2021/08/02 02:10:38;;;;;;;;;;;;;;;16.69;83.33;97540.08;1712318;83;24613;-88
2021/08/02 02:13:00;;;;;;;;;;;;;;;16.69;83.32;97541.41;1707118;82;20219;-88
2021/08/02 02:15:29;;;;;;;;;;;;;;;16.69;83.33;97542.72;1705502;83;24830;-88
2021/08/02 02:17:56;;;;;;;;;;;;;;;16.69;83.28;97550.65;1708804;82;22718;-88
2021/08/02 02:20:22;;;;;;;;;;;;;;;16.70;83.27;97544.34;1714117;83;26037;-87
2021/08/02 02:22:48;;;;;;;;;;;;;;;16.72;83.28;97542.38;1706870;83;24339;-88
2021/08/02 02:25:14;;;;;;;;;;;;;;;16.74;83.26;97545.69;1707432;83;20228;-88
2021/08/02 02:27:41;;;;;;;;;;;;;;;16.71;83.24;97553.93;1712591;83;24803;-88
2021/08/02 02:30:08;;;;;;;;;;;;;;;16.68;83.25;97554.28;1708042;83;22277;-88
2021/08/02 02:32:38;;;;;;;;;;;;;;;16.62;83.25;97554.94;1711474;83;25976;-88
2021/08/02 02:35:05;;;;;;;;;;;;;;;16.59;83.23;97552.13;1712597;83;24471;-88
2021/08/02 02:37:31;;;;;;;;;;;;;;;16.56;83.22;97552.44;1712666;82;20320;-88
2021/08/02 02:39:58;;;;;;;;;;;;;;;16.54;83.22;97545.16;1709347;83;25466;-88
2021/08/02 02:42:25;;;;;;;;;;;;;;;16.57;83.22;97545.34;1741406;81;22142;-88
2021/08/02 02:44:52;;;;;;;;;;;;;;;16.58;83.21;97542.51;1740284;81;26046;-88
2021/08/02 02:47:18;;;;;;;;;;;;;;;16.56;83.23;97550.28;1735392;80;24505;-88
2021/08/02 02:49:46;;;;;;;;;;;;;;;16.54;83.23;97557.54;1751137;81;20490;-87
2021/08/02 02:52:19;;;;;;;;;;;;;;;16.51;83.25;97557.39;1752996;81;24748;-87
2021/08/02 02:54:47;;;;;;;;;;;;;;;16.47;83.26;97561.86;1750236;81;22000;-87
2021/08/02 02:57:13;;;;;;;;;;;;;;;16.43;83.27;97575.03;1749082;81;26117;-88
2021/08/02 02:59:39;;;;;;;;;;;;;;;16.38;83.27;97571.58;1751408;81;24501;-88
2021/08/02 03:02:06;;;;;;;;;;;;;;;16.32;83.29;97574.38;1739949;81;20201;-88
2021/08/02 03:04:40;;;;;;;;;;;;;;;16.27;83.29;97574.53;1740614;82;24222;-88
2021/08/02 03:07:08;;;;;;;;;;;;;;;16.25;83.33;97581.32;1729039;82;21954;-89
2021/08/02 03:09:38;;;;;;;;;;;;;;;16.21;83.37;97579.97;1723804;80;25966;-88
2021/08/02 03:12:04;;;;;;;;;;;;;;;16.18;83.40;97582.95;1753061;81;25230;-88
2021/08/02 03:14:30;;;;;;;;;;;;;;;16.13;83.43;97581.30;1750512;81;20580;-88
2021/08/02 03:16:56;;;;;;;;;;;;;;;16.14;83.45;97585.59;1753003;81;20741;-86
2021/08/02 03:19:22;;;;;;;;;;;;;;;16.16;83.47;97586.23;1737174;81;20327;-86
2021/08/02 03:21:48;;;;;;;;;;;;;;;16.16;83.50;97590.20;1740430;82;26012;-86
2021/08/02 03:24:16;;;;;;;;;;;;;;;16.16;83.56;97584.92;1771217;80;24420;-86
2021/08/02 03:26:44;;;;;;;;;;;;;;;16.14;83.60;97590.88;1736771;80;20252;-86
2021/08/02 03:29:24;;;;;;;;;;;;;;;16.14;83.64;97598.80;1758368;80;25539;-85
2021/08/02 03:31:54;;;;;;;;;;;;;;;16.14;83.69;97589.55;1772207;80;21980;-86
2021/08/02 03:34:21;;;;;;;;;;;;;;;16.19;83.74;97597.81;1769669;80;26072;-86
2021/08/02 03:36:52;;;;;;;;;;;;;;;16.21;83.77;97604.22;1769128;80;24412;-86
2021/08/02 03:39:23;;;;;;;;;;;;;;;16.21;83.80;97601.59;1766295;80;20239;-86
2021/08/02 03:41:51;;;;;;;;;;;;;;;16.22;83.85;97601.92;1765863;80;24826;-86
2021/08/02 03:44:17;;;;;;;;;;;;;;;16.24;83.89;97605.23;1731225;81;21944;-85
2021/08/02 03:46:44;;;;;;;;;;;;;;;16.24;83.92;97608.70;1735504;81;26028;-86
2021/08/02 03:49:11;;;;;;;;;;;;;;;16.23;83.94;97604.90;1730975;80;20152;-86
2021/08/02 03:51:48;;;;;;;;;;;;;;;16.23;83.97;97606.22;1754530;81;20508;-86
2021/08/02 03:54:15;;;;;;;;;;;;;;;16.24;83.99;97612.67;1764695;81;24755;-86
2021/08/02 03:56:48;;;;;;;;;;;;;;;16.23;84.04;97616.29;1732415;81;22623;-86
2021/08/02 03:59:14;;;;;;;;;;;;;;;16.26;84.09;97615.95;1763066;80;25983;-85
2021/08/02 04:01:41;;;;;;;;;;;;;;;16.27;84.11;97620.25;1758836;80;24482;-85
2021/08/02 04:04:09;;;;;;;;;;;;;;;16.25;84.13;97622.24;1763156;80;20484;-85
2021/08/02 04:06:36;;;;;;;;;;;;;;;16.24;84.15;97624.55;1759135;80;24914;-85
2021/08/02 04:09:03;;;;;;;;;;;;;;;16.23;84.17;97632.63;1759742;80;22033;-85
2021/08/02 04:11:30;;;;;;;;;;;;;;;16.20;84.22;97644.31;1746338;80;40674;-86
2021/08/02 04:13:57;;;;;;;;;;;;;;;16.18;84.23;97644.98;1759976;80;24458;-85
2021/08/02 04:16:26;;;;;;;;;;;;;;;16.15;84.25;97649.25;1764004;80;20292;-86
2021/08/02 04:18:52;;;;;;;;;;;;;;;16.14;84.28;97650.76;1761813;80;24848;-86
2021/08/02 04:21:19;;;;;;;;;;;;;;;16.13;84.31;97662.30;1764943;80;20291;-86
2021/08/02 04:23:45;;;;;;;;;;;;;;;16.09;84.34;97663.09;1769788;81;25983;-85
2021/08/02 04:26:12;;;;;;;;;;;;;;;16.10;84.38;97666.07;1761050;80;24498;-85
2021/08/02 04:28:40;;;;;;;;;;;;;;;16.08;84.39;97668.06;1753929;80;20328;-86
2021/08/02 04:31:08;;;;;;;;;;;;;;;16.07;84.43;97669.53;1767429;81;24820;-85
2021/08/02 04:33:34;;;;;;;;;;;;;;;16.09;84.46;97671.02;1764541;80;22052;-85
2021/08/02 04:36:00;;;;;;;;;;;;;;;16.11;84.49;97680.93;1742053;80;25975;-86
2021/08/02 04:38:26;;;;;;;;;;;;;;;16.13;84.51;97680.78;1767443;81;24373;-86
2021/08/02 04:40:52;;;;;;;;;;;;;;;16.13;84.56;97675.50;1760474;80;20858;-86
2021/08/02 04:43:22;;;;;;;;;;;;;;;16.14;84.57;97675.34;1731675;80;20261;-86
2021/08/02 04:45:48;;;;;;;;;;;;;;;16.11;84.58;97684.89;1763809;80;22046;-86
2021/08/02 04:48:14;;;;;;;;;;;;;;;16.11;84.59;97684.89;1748916;81;26027;-86
2021/08/02 04:50:43;;;;;;;;;;;;;;;16.14;84.61;97688.55;1752490;81;20803;-85
2021/08/02 04:53:08;;;;;;;;;;;;;;;16.18;84.62;97683.27;1749939;80;20197;-85
2021/08/02 04:55:35;;;;;;;;;;;;;;;16.23;84.65;97684.11;1752217;81;24863;-86
2021/08/02 04:58:01;;;;;;;;;;;;;;;16.24;84.68;97687.09;1752286;81;22068;-86
2021/08/02 05:00:32;;;;;;;;;;;;;;;16.26;84.69;97689.88;1748208;81;21152;-87
2021/08/02 05:02:54;;;;;;;;;;;;;;;16.28;84.73;97699.80;1751278;81;24531;-87
2021/08/02 05:05:21;;;;;;;;;;;;;;;16.27;84.75;97700.78;1771301;80;20311;-85
2021/08/02 05:07:47;;;;;;;;;;;;;;;16.28;84.75;97695.84;1768321;80;20211;-85
2021/08/02 05:10:12;;;;;;;;;;;;;;;16.26;84.78;97696.48;1768831;80;20901;-86
2021/08/02 05:12:39;;;;;;;;;;;;;;;16.27;84.81;97699.46;1767943;80;20964;-86
2021/08/02 05:15:06;;;;;;;;;;;;;;;16.25;84.79;97702.77;1765656;80;24477;-85
2021/08/02 05:17:39;;;;;;;;;;;;;;;16.20;84.78;97716.92;1760545;80;20173;-86
2021/08/02 05:20:06;;;;;;;;;;;;;;;16.16;84.76;97732.75;1764920;80;24765;-86
2021/08/02 05:22:39;;;;;;;;;;;;;;;16.14;84.76;97735.23;1773625;80;22095;-85
2021/08/02 05:25:06;;;;;;;;;;;;;;;16.12;84.78;97730.11;1769315;80;26085;-87
2021/08/02 05:27:32;;;;;;;;;;;;;;;16.08;84.79;97734.05;1770096;80;24495;-87
2021/08/02 05:29:58;;;;;;;;;;;;;;;16.06;84.79;97728.59;1770948;80;20302;-86
2021/08/02 05:32:24;;;;;;;;;;;;;;;16.07;84.79;97733.72;1760274;80;20733;-85
2021/08/02 05:34:50;;;;;;;;;;;;;;;16.08;84.80;97729.27;1765132;80;22058;-85
2021/08/02 05:37:16;;;;;;;;;;;;;;;16.09;84.83;97735.69;1747229;81;25971;-88
2021/08/02 05:39:42;;;;;;;;;;;;;;;16.08;84.83;97742.46;1739060;81;20454;-90
2021/08/02 05:42:08;;;;;;;;;;;;;;;16.08;84.85;97741.98;1745462;80;20214;-90
2021/08/02 05:44:40;;;;;;;;;;;;;;;16.07;84.83;97746.08;1740775;81;21713;-90
2021/08/02 05:47:11;;;;;;;;;;;;;;;16.09;84.85;97746.77;1738427;81;21950;-89
2021/08/02 05:49:35;;;;;;;;;;;;;;;16.09;84.85;97746.77;1736126;81;26831;-89
2021/08/02 05:52:01;;;;;;;;;;;;;;;16.09;84.86;97740.96;1740836;81;20588;-90
2021/08/02 05:54:27;;;;;;;;;;;;;;;16.07;84.86;97743.44;1743608;81;20252;-90
2021/08/02 05:56:53;;;;;;;;;;;;;;;16.10;84.85;97745.75;1745397;81;25521;-89
2021/08/02 05:59:19;;;;;;;;;;;;;;;16.10;84.86;97742.63;1746271;80;20831;-89
2021/08/02 06:01:45;;;;;;;;;;;;;;;16.12;84.85;97743.30;1744321;81;20982;-90
2021/08/02 06:04:11;;;;;;;;;;;;;;;16.14;84.87;97739.19;1751366;81;20862;-89
2021/08/02 06:06:37;;;;;;;;;;;;;;;16.17;84.87;97742.33;1741880;81;20522;-90
2021/08/02 06:09:10;;;;;;;;;;;;;;;16.20;84.90;97734.60;1743620;81;24917;-89
2021/08/02 06:11:32;;;;;;;;;;;;;;;16.23;84.91;97735.10;1745100;81;22034;-90
2021/08/02 06:13:58;;;;;;;;;;;;;;;16.26;84.94;97728.66;1749716;81;26130;-90
2021/08/02 06:16:24;;;;;;;;;;;;;;;16.31;84.94;97736.43;1742078;82;25118;-89
2021/08/02 06:18:50;;;;;;;;;;;;;;;16.30;84.94;97736.13;1742850;82;20252;-90
2021/08/02 06:21:16;;;;;;;;;;;;;;;16.31;84.96;97739.07;1744155;81;20266;-89
2021/08/02 06:23:42;;;;;;;;;;;;;;;16.33;84.95;97741.56;1745778;81;21934;-89
2021/08/02 06:26:08;;;;;;;;;;;;;;;16.37;84.96;97745.53;1745972;81;20957;-89
2021/08/02 06:28:34;;;;;;;;;;;;;;;16.41;84.95;97750.02;1739766;82;24484;-88
2021/08/02 06:31:01;;;;;;;;;;;;;;;16.41;84.97;97749.53;1739771;82;20417;-89
2021/08/02 06:33:29;;;;;;;;;;;;;;;16.39;84.97;97762.05;1739673;82;24818;-90
2021/08/02 06:35:55;;;;;;;;;;;;;;;16.37;84.98;97761.38;1739592;82;22199;-90
2021/08/02 06:38:33;;;;;;;;;;;;;;;16.39;84.99;97760.73;1740013;81;26171;-89
2021/08/02 06:41:04;;;;;;;;;;;;;;;16.36;85.00;97758.91;1738354;82;24649;-89
2021/08/02 06:43:30;;;;;;;;;;;;;;;16.41;85.00;97767.19;1747654;81;20165;-89
2021/08/02 06:45:56;;;;;;;;;;;;;;;16.47;85.08;97762.59;1737493;81;25556;-88
2021/08/02 06:48:22;;;;;;;;;;;;;;;16.60;85.10;97755.88;1735747;81;22215;-89
2021/08/02 06:50:49;;;;;;;;;;;;;;;16.72;85.19;97756.40;1705151;82;26180;-88
2021/08/02 06:53:15;;;;;;;;;;;;;;;16.84;85.29;97755.60;1716058;82;24693;-89
2021/08/02 06:55:41;;;;;;;;;;;;;;;16.90;85.35;97758.42;1738391;81;20331;-88
2021/08/02 06:58:10;;;;;;;;;;;;;;;16.99;85.37;97763.22;1736259;81;25726;-88
2021/08/02 07:00:36;;;;;;;;;;;;;;;17.00;85.38;97764.88;1712632;83;22071;-88
2021/08/02 07:03:03;;;;;;;;;;;;;;;17.00;85.39;97759.59;1756991;81;26056;-88
2021/08/02 07:05:29;;;;;;;;;;;;;;;17.03;85.36;97763.21;1753689;81;24458;-88
2021/08/02 07:07:55;;;;;;;;;;;;;;;17.08;85.33;97768.34;1753193;81;20546;-88
2021/08/02 07:10:27;;;;;;;;;;;;;;;17.17;85.35;97768.36;1753686;81;20727;-88
2021/08/02 07:12:53;;;;;;;;;;;;;;;17.26;85.36;97771.33;1748498;81;22098;-88
2021/08/02 07:15:19;;;;;;;;;;;;;;;17.39;85.40;97780.44;1754487;81;21015;-88
2021/08/02 07:17:45;;;;;;;;;;;;;;;17.48;85.45;97781.24;1752447;81;24502;-88
2021/08/02 07:20:11;;;;;;;;;;;;;;;17.58;85.49;97781.40;1752210;81;20177;-88
2021/08/02 07:22:37;;;;;;;;;;;;;;;17.67;85.51;97792.02;1731704;81;24716;-88
2021/08/02 07:25:03;;;;;;;;;;;;;;;17.77;85.52;97796.64;1738039;81;21897;-88
2021/08/02 07:27:29;;;;;;;;;;;;;;;17.88;85.57;97802.91;1734712;81;25976;-88
2021/08/02 07:29:56;;;;;;;;;;;;;;;17.88;85.56;97809.03;1721339;82;24481;-88
2021/08/02 07:32:22;;;;;;;;;;;;;;;17.87;85.49;97803.41;1754363;81;20261;-88
2021/08/02 07:34:48;;;;;;;;;;;;;;;17.94;85.47;97801.74;1755655;81;20327;-88
2021/08/02 07:37:14;;;;;;;;;;;;;;;17.91;85.41;97804.71;1754546;81;22030;-88
2021/08/02 07:39:43;;;;;;;;;;;;;;;17.91;85.35;97811.33;1726008;81;21059;-88
2021/08/02 07:42:09;;;;;;;;;;;;;;;17.96;85.28;97809.50;1739679;80;24493;-87
2021/08/02 07:44:35;;;;;;;;;;;;;;;18.06;85.29;97807.98;1729217;80;20520;-88
2021/08/02 07:47:01;;;;;;;;;;;;;;;18.10;85.30;97796.08;1728868;82;20251;-87
2021/08/02 07:49:28;;;;;;;;;;;;;;;18.17;85.26;97799.67;1707052;82;22037;-87
2021/08/02 07:51:58;;;;;;;;;;;;;;;18.24;85.27;97801.98;1738176;80;25867;-87
2021/08/02 07:54:24;;;;;;;;;;;;;;;18.24;85.22;97796.19;1754519;81;24639;-87
2021/08/02 07:56:56;;;;;;;;;;;;;;;18.23;85.14;97801.64;1747967;81;20283;-87
2021/08/02 07:59:29;;;;;;;;;;;;;;;18.27;85.11;97803.78;1753270;81;24274;-87
2021/08/02 08:01:55;;;;;;;;;;;;;;;18.31;85.09;97804.28;1746245;81;22010;-87
2021/08/02 08:04:29;;;;;;;;;;;;;;;18.38;85.09;97809.23;1753961;81;26011;-87
2021/08/02 08:06:55;;;;;;;;;;;;;;;18.44;85.11;97813.81;1752026;81;24522;-87
2021/08/02 08:09:21;;;;;;;;;;;;;;;18.51;85.12;97810.82;1754262;81;20246;-87
2021/08/02 08:11:53;;;;;;;;;;;;;;;18.60;85.15;97812.98;1744585;81;25388;-87
2021/08/02 08:14:19;;;;;;;;;;;;;;;18.63;85.17;97806.83;1729550;80;21994;-87
2021/08/02 08:16:45;;;;;;;;;;;;;;;18.67;85.14;97814.75;1734124;82;25988;-87
2021/08/02 08:19:14;;;;;;;;;;;;;;;18.72;85.14;97809.75;1731584;82;24409;-87
2021/08/02 08:21:40;;;;;;;;;;;;;;;18.82;85.17;97815.36;1770020;80;20213;-87
2021/08/02 08:24:07;;;;;;;;;;;;;;;18.88;85.18;97815.97;1743270;81;25600;-87
2021/08/02 08:26:36;;;;;;;;;;;;;;;18.95;85.18;97819.08;1751586;81;22224;-87
2021/08/02 08:29:03;;;;;;;;;;;;;;;19.04;85.15;97819.34;1732518;82;25976;-87
2021/08/02 08:31:30;;;;;;;;;;;;;;;19.14;85.13;97824.45;1743578;81;24508;-87
2021/08/02 08:34:13;;;;;;;;;;;;;;;19.20;85.08;97821.89;1752806;81;20228;-87
2021/08/02 08:36:39;;;;;;;;;;;;;;;19.30;85.01;97819.03;1747678;82;24745;-87
2021/08/02 08:39:11;;;;;;;;;;;;;;;19.35;84.94;97812.69;1745626;80;20253;-88
2021/08/02 08:41:37;;;;;;;;;;;;;;;19.42;84.85;97812.81;1732498;81;25794;-88
2021/08/02 08:44:17;;;;;;;;;;;;;;;19.45;84.75;97809.83;1737322;82;24482;-88
2021/08/02 08:46:49;;;;;;;;;;;;;;;19.45;84.63;97813.30;1771730;79;20213;-88
2021/08/02 08:49:19;;;;;;;;;;;;;;;19.46;84.47;97814.96;1749004;81;24829;-88
2021/08/02 08:51:46;;;;;;;;;;;;;;;19.50;84.34;97798.99;1742798;80;21971;-86
2021/08/02 08:54:12;;;;;;;;;;;;;;;19.58;84.24;97800.77;1735134;82;25447;-86
2021/08/02 08:56:38;;;;;;;;;;;;;;;19.68;84.11;97800.52;1776834;80;24384;-87
2021/08/02 08:59:05;;;;;;;;;;;;;;;19.72;83.94;97796.48;1772977;80;20515;-87
2021/08/02 09:01:37;;;;;;;;;;;;;;;19.74;83.74;97796.64;1769862;80;24743;-87
2021/08/02 09:04:05;;;;;;;;;;;;;;;19.75;83.61;97801.42;1750720;80;22050;-87
2021/08/02 09:06:45;;;;;;;;;;;;;;;19.69;83.45;97790.22;1765268;80;26036;-87
2021/08/02 09:09:29;;;;;;;;;;;;;;;19.75;83.32;97799.59;1770459;80;24421;-87
2021/08/02 09:12:13;;;;;;;;;;;;;;;19.70;83.10;97799.81;1752049;80;20182;-86
2021/08/02 09:15:00;;;;;;;;;;;;;;;19.67;82.93;97806.82;1742041;81;24753;-86
2021/08/02 09:17:29;;;;;;;;;;;;;;;19.66;82.79;97810.47;1725429;82;22046;-86
2021/08/02 09:20:03;;;;;;;;;;;;;;;19.67;82.68;97809.47;1740459;82;26003;-87
2021/08/02 09:22:30;;;;;;;;;;;;;;;19.75;82.62;97812.04;1744635;80;24421;-86
2021/08/02 09:25:03;;;;;;;;;;;;;;;19.90;82.58;97815.07;1757279;80;20487;-86
2021/08/02 09:27:34;;;;;;;;;;;;;;;20.10;82.62;97815.36;1733257;82;24641;-86
2021/08/02 09:30:18;;;;;;;;;;;;;;;20.34;82.64;97814.31;1735562;82;22014;-86
2021/08/02 09:32:49;;;;;;;;;;;;;;;20.57;82.71;97808.86;1731568;82;26167;-86
2021/08/02 09:38:09;;;;;;;;;;;;;;;20.98;82.57;97811.83;1761166;80;20288;-86
2021/08/02 09:40:43;;;;;;;;;;;;;;;21.07;82.34;97819.50;1750206;81;25009;-86
2021/08/02 09:43:22;;;;;;;;;;;;;;;21.04;82.03;97815.06;1765718;80;22813;-86
2021/08/02 09:45:51;;;;;;;;;;;;;;;21.03;81.73;97821.39;1761545;81;21558;-86
2021/08/02 09:48:37;;;;;;;;;;;;;;;21.02;81.49;97821.90;1768061;81;24618;-86
2021/08/02 09:51:13;;;;;;;;;;;;;;;21.04;81.24;97823.05;1764575;81;20174;-86
2021/08/02 09:53:42;;;;;;;;;;;;;;;21.07;81.01;97831.47;1760435;80;25719;-86
2021/08/02 09:56:10;;;;;;;;;;;;;;;21.04;80.72;97839.84;1760511;80;22072;-86
2021/08/02 09:58:38;;;;;;;;;;;;;;;20.93;80.39;97836.84;1764114;79;26149;-86
2021/08/02 10:01:05;;;;;;;;;;;;;;;20.92;80.13;97845.32;1768213;81;25184;-87
2021/08/02 10:03:34;;;;;;;;;;;;;;;20.99;80.01;97839.58;1749236;81;20270;-88
2021/08/02 10:06:02;;;;;;;;;;;;;;;21.03;79.79;97836.03;1724049;82;24835;-86
2021/08/02 10:08:32;;;;;;;;;;;;;;;21.05;79.61;97828.70;1769728;80;22174;-86
2021/08/02 10:10:58;;;;;;;;;;;;;;;21.06;79.34;97831.14;1736012;82;26050;-86
2021/08/02 10:13:35;;;;;;;;;;;;;;;21.08;79.10;97830.47;1735668;82;24391;-86
2021/08/02 10:16:03;;;;;;;;;;;;;;;21.11;78.94;97834.60;1726478;82;20293;-86
2021/08/02 10:18:30;;;;;;;;;;;;;;;21.16;78.77;97841.04;1740391;81;24778;-86
2021/08/02 10:21:09;;;;;;;;;;;;;;;21.23;78.67;97839.25;1737412;81;21999;-86
2021/08/02 10:23:40;;;;;;;;;;;;;;;21.31;78.57;97844.14;1749533;81;26128;-86
2021/08/02 10:26:32;;;;;;;;;;;;;;;21.34;78.44;97847.24;1721055;82;24547;-86
2021/08/02 10:29:03;;;;;;;;;;;;;;;21.41;78.30;97847.31;1739563;82;20244;-86
2021/08/02 10:31:30;;;;;;;;;;;;;;;21.38;78.17;97853.03;1735234;82;24926;-86
2021/08/02 10:33:57;;;;;;;;;;;;;;;21.29;77.86;97845.16;1767210;80;22299;-86
2021/08/02 10:36:25;;;;;;;;;;;;;;;21.20;77.61;97851.62;1767735;81;25905;-86
2021/08/02 10:38:52;;;;;;;;;;;;;;;21.00;77.37;97850.52;1765324;81;24589;-86
2021/08/02 10:41:26;;;;;;;;;;;;;;;20.85;77.18;97851.88;1766550;80;20177;-88
2021/08/02 10:43:52;;;;;;;;;;;;;;;20.78;77.04;97862.14;1759227;80;24774;-89
2021/08/02 10:46:20;;;;;;;;;;;;;;;20.71;76.93;97858.56;1768284;81;21999;-90
2021/08/02 10:48:46;;;;;;;;;;;;;;;20.70;76.91;97863.55;1764103;81;26007;-89
2021/08/02 10:51:16;;;;;;;;;;;;;;;20.54;76.89;97864.58;1735032;82;20313;-88
2021/08/02 10:53:58;;;;;;;;;;;;;;;20.41;76.91;97871.84;1766077;80;20460;-89
2021/08/02 10:56:29;;;;;;;;;;;;;;;20.27;76.92;97867.83;1760655;80;25579;-89
2021/08/02 10:58:56;;;;;;;;;;;;;;;20.13;76.86;97860.14;1763363;80;22728;-89
2021/08/02 11:01:26;;;;;;;;;;;;;;;20.09;76.88;97858.87;1766584;81;25967;-90
2021/08/02 11:03:54;;;;;;;;;;;;;;;20.13;76.90;97860.14;1742970;81;24471;-89
2021/08/02 11:06:27;;;;;;;;;;;;;;;20.14;76.95;97859.64;1736230;80;20257;-86
2021/08/02 11:08:54;;;;;;;;;;;;;;;20.15;76.96;97857.32;1733106;82;25015;-86
2021/08/02 11:11:30;;;;;;;;;;;;;;;20.05;77.00;97858.41;1724381;82;22773;-86
2021/08/02 11:14:20;;;;;;;;;;;;;;;20.01;76.99;97858.96;1733358;82;26763;-89
2021/08/02 11:16:47;;;;;;;;;;;;;;;19.98;76.98;97868.60;1765116;80;24486;-88
2021/08/02 11:19:17;;;;;;;;;;;;;;;19.98;77.02;97869.43;1769896;81;20150;-88
2021/08/02 11:21:48;;;;;;;;;;;;;;;19.96;77.02;97869.30;1763740;80;25014;-88
2021/08/02 11:24:17;;;;;;;;;;;;;;;19.90;77.01;97880.64;1737518;80;20238;-89
2021/08/02 11:26:46;;;;;;;;;;;;;;;19.89;77.02;97882.47;1751693;80;26087;-88
2021/08/02 11:29:26;;;;;;;;;;;;;;;19.79;77.03;97883.22;1737870;80;24510;-89
2021/08/02 11:32:03;;;;;;;;;;;;;;;19.76;77.05;97883.56;1766011;80;20471;-89
2021/08/02 11:34:29;;;;;;;;;;;;;;;19.81;77.07;97892.31;1764987;80;24862;-89
2021/08/02 11:36:58;;;;;;;;;;;;;;;19.69;77.00;97886.62;1768741;80;21991;-89
2021/08/02 11:39:26;;;;;;;;;;;;;;;19.58;76.92;97887.84;1746940;80;26673;-91
2021/08/02 11:41:59;;;;;;;;;;;;;;;19.62;76.83;97893.64;1751828;80;24452;-91
2021/08/02 11:44:26;;;;;;;;;;;;;;;19.57;76.74;97888.87;1741252;79;20216;-91
2021/08/02 11:47:07;;;;;;;;;;;;;;;19.45;76.66;97893.42;1734197;81;24357;-91
2021/08/02 11:49:38;;;;;;;;;;;;;;;19.41;76.65;97901.39;1729064;80;21833;-90
2021/08/02 11:52:05;;;;;;;;;;;;;;;19.44;76.61;97903.17;1704161;82;25987;-90
2021/08/02 11:54:33;;;;;;;;;;;;;;;19.32;76.60;97908.55;1718570;82;24421;-90
2021/08/02 11:57:01;;;;;;;;;;;;;;;19.30;76.62;97915.05;1722571;82;20538;-89
2021/08/02 11:59:30;;;;;;;;;;;;;;;19.39;76.64;97916.15;1681659;83;24922;-90
2021/08/02 12:01:59;;;;;;;;;;;;;;;19.37;76.66;97914.66;1719524;82;21955;-89
2021/08/02 12:04:26;;;;;;;;;;;;;;;19.25;76.67;97911.59;1706990;82;26923;-87
2021/08/02 12:06:53;;;;;;;;;;;;;;;19.18;76.66;97898.70;1713248;82;20310;-87
2021/08/02 12:09:30;;;;;;;;;;;;;;;19.20;76.67;97902.02;1713562;82;20285;-86
2021/08/02 12:11:57;;;;;;;;;;;;;;;19.09;76.71;97893.12;1712310;82;24746;-87
2021/08/02 12:14:24;;;;;;;;;;;;;;;18.97;76.69;97892.67;1711184;82;22144;-87
2021/08/02 12:16:53;;;;;;;;;;;;;;;19.01;76.72;97895.80;1749701;81;26032;-87
2021/08/02 12:19:19;;;;;;;;;;;;;;;19.04;76.71;97887.48;1751760;79;24610;-87
2021/08/02 12:21:46;;;;;;;;;;;;;;;19.05;76.71;97882.01;1755143;80;20854;-86
2021/08/02 12:24:16;;;;;;;;;;;;;;;18.94;76.69;97875.77;1727068;81;25446;-90
2021/08/02 12:26:51;;;;;;;;;;;;;;;18.90;76.73;97871.81;1712728;82;21947;-90
2021/08/02 12:29:22;;;;;;;;;;;;;;;18.90;76.72;97869.66;1717942;82;25963;-90
2021/08/02 12:31:56;;;;;;;;;;;;;;;18.94;76.66;97871.78;1710569;82;25354;-90
2021/08/02 12:34:24;;;;;;;;;;;;;;;18.92;76.60;97876.45;1713415;82;20555;-90
2021/08/02 12:36:56;;;;;;;;;;;;;;;18.85;76.58;97874.16;1730068;82;24900;-90
2021/08/02 12:39:25;;;;;;;;;;;;;;;18.70;76.57;97875.39;1716104;82;22102;-90
2021/08/02 12:41:54;;;;;;;;;;;;;;;18.55;76.58;97862.50;1685677;83;21375;-89
2021/08/02 12:44:20;;;;;;;;;;;;;;;18.47;76.63;97846.62;1717853;82;25106;-90
2021/08/02 12:46:46;;;;;;;;;;;;;;;18.43;76.67;97848.45;1731973;82;20273;-90
2021/08/02 12:49:15;;;;;;;;;;;;;;;18.45;76.74;97841.98;1732168;82;25227;-89
2021/08/02 12:51:41;;;;;;;;;;;;;;;18.52;76.88;97834.17;1730712;82;20794;-90
2021/08/02 12:54:07;;;;;;;;;;;;;;;18.69;77.03;97841.92;1731985;81;21000;-90
2021/08/02 12:56:35;;;;;;;;;;;;;;;18.97;77.22;97844.94;1731441;82;24401;-90
2021/08/02 12:59:01;;;;;;;;;;;;;;;19.17;77.42;97840.83;1732054;82;20241;-90